Time;durP1;ratioP1;P1;durP2;ratioP2;P2;SDS_P1;SDS_P2;PMS_P1;PMS_P2;Temp;Humidity;BMP_temperature;BMP_pressure;BME280_temperature;BME280_humidity;BME280_pressure;Samples;Min_cycle;Max_cycle;Signal;HPM_P1;HPM_P2
2024/01/01 00:00:40;;;;;;;;;;;;;;;;;;;;;
2024/01/01 00:03:39;;;;;;;23.45;4.32;;;10.70;99.90;;;;;;7437694;19;20009;-80
2024/01/01 00:06:33;;;;;;;;;;;;;;;;;;;;;
2024/01/01 00:09:20;;;;;;;;;;;;;;;;;;;;;
2024/01/01 00:12:34;;;;;;;;;;;;;;;;;;;;;
2024/01/01 00:15:24;;;;;;;;;;;;;;;;;;;;;
2024/01/01 00:22:07;;;;;;;;;;;;;;;;;;;;;
2024/01/01 00:24:48;;;;;;;26.40;4.40;;;10.70;99.90;;;;;;7424738;19;20030;-81
2024/01/01 00:31:16;;;;;;;;;;;;;;;;;;;;;
2024/01/01 00:34:08;;;;;;;;;;;;;;;;;;;;;
2024/01/01 00:54:26;;;;;;;;;;;;;;;;;;;;;
2024/01/01 00:57:26;;;;;;;29.60;4.35;;;10.50;99.90;;;;;;7418340;19;20061;-81
2024/01/01 01:00:04;;;;;;;36.55;4.35;;;10.70;99.90;;;;;;7418618;19;19999;-80
2024/01/01 01:02:33;;;;;;;27.42;4.63;;;10.60;99.90;;;;;;7416125;19;20010;-81
2024/01/01 01:05:04;;;;;;;29.15;3.80;;;10.60;99.90;;;;;;7441528;19;20486;-81
2024/01/01 01:07:39;;;;;;;28.80;4.18;;;10.50;99.90;;;;;;7417789;19;19998;-81
2024/01/01 01:10:17;;;;;;;27.02;4.03;;;10.40;99.90;;;;;;7418216;19;20092;-80
2024/01/01 01:12:50;;;;;;;26.75;3.95;;;10.40;99.90;;;;;;7419156;19;20070;-81
2024/01/01 01:15:19;;;;;;;25.70;4.20;;;10.50;99.90;;;;;;7420721;19;20006;-81
2024/01/01 01:17:53;;;;;;;26.55;4.20;;;10.60;99.90;;;;;;7420432;19;20025;-81
2024/01/01 01:23:28;;;;;;;29.38;4.57;;;10.60;99.90;;;;;;7414512;19;20013;-81
2024/01/01 01:26:03;;;;;;;25.83;4.35;;;10.50;99.90;;;;;;7417006;19;20010;-82
2024/01/01 01:28:41;;;;;;;23.63;3.70;;;10.40;99.90;;;;;;7419394;19;20007;-82
2024/01/01 01:31:11;;;;;;;30.92;4.10;;;10.40;99.90;;;;;;7418839;19;20011;-81
2024/01/01 01:34:05;;;;;;;35.15;4.13;;;10.60;99.90;;;;;;7416588;19;19998;-80
2024/01/01 01:36:44;;;;;;;25.70;4.30;;;10.60;99.90;;;;;;7416119;19;20367;-81
2024/01/01 01:39:33;;;;;;;30.85;5.20;;;10.60;99.90;;;;;;7414622;19;20002;-81
2024/01/01 01:42:14;;;;;;;29.08;4.63;;;10.70;99.90;;;;;;7416999;19;20382;-82
2024/01/01 01:44:51;;;;;;;18.73;4.38;;;10.40;99.90;;;;;;7414445;19;20361;-81
2024/01/01 01:47:32;;;;;;;23.23;4.03;;;10.60;99.90;;;;;;7434900;19;20070;-82
2024/01/01 01:50:27;;;;;;;33.00;5.53;;;10.60;99.90;;;;;;7416101;19;20094;-81
2024/01/01 01:53:36;;;;;;;27.85;4.25;;;10.70;99.90;;;;;;7406136;19;20374;-81
2024/01/01 01:56:10;;;;;;;29.33;4.07;;;10.80;99.90;;;;;;7387602;19;20015;-81
2024/01/01 01:58:42;;;;;;;23.27;3.65;;;10.80;99.90;;;;;;7387005;19;20355;-80
2024/01/01 02:01:13;;;;;;;21.38;3.90;;;10.80;99.90;;;;;;7387733;19;19999;-80
2024/01/01 02:03:41;;;;;;;27.63;4.38;;;10.70;99.90;;;;;;7393015;19;20021;-80
2024/01/01 02:06:11;;;;;;;31.60;3.83;;;10.40;99.90;;;;;;7406600;19;20038;-79
2024/01/01 02:08:44;;;;;;;35.42;3.42;;;10.60;99.90;;;;;;7406744;19;20034;-80
2024/01/01 02:11:14;;;;;;;23.40;3.50;;;10.50;99.90;;;;;;7427495;19;20006;-80
2024/01/01 02:14:29;;;;;;;28.50;3.75;;;10.60;99.90;;;;;;7397735;19;19999;-81
2024/01/01 02:20:55;;;;;;;41.40;3.85;;;10.60;99.90;;;;;;7384693;19;20120;-81
2024/01/01 02:24:16;;;;;;;20.42;3.53;;;10.30;99.90;;;;;;7281196;19;2004308;-82
2024/01/01 02:26:59;;;;;;;25.05;3.85;;;10.50;99.90;;;;;;7384356;19;20019;-81
2024/01/01 02:32:16;;;;;;;23.73;4.03;;;10.50;99.90;;;;;;7402034;19;20043;-80
2024/01/01 02:34:47;;;;;;;17.17;2.70;;;10.50;99.90;;;;;;7381968;19;20027;-81
2024/01/01 02:37:16;;;;;;;;;;;10.40;99.90;;;;;;7383023;19;20010;-81
2024/01/01 02:39:47;;;;;;;15.70;3.15;;;10.40;99.90;;;;;;7381115;19;20267;-80
2024/01/01 02:42:21;;;;;;;26.30;3.70;;;10.60;99.90;;;;;;7380121;19;20375;-80
2024/01/01 02:44:50;;;;;;;29.80;3.70;;;10.60;99.90;;;;;;7380571;19;20011;-80
2024/01/01 02:47:19;;;;;;;34.00;4.63;;;10.80;99.90;;;;;;7402179;19;20411;-80
2024/01/01 02:49:48;;;;;;;18.02;2.75;;;10.70;99.90;;;;;;7381325;19;20157;-80
2024/01/01 02:52:18;;;;;;;34.60;3.75;;;10.60;99.90;;;;;;7381617;19;20036;-80
2024/01/01 02:54:47;;;;;;;18.23;3.63;;;10.70;99.90;;;;;;7380919;19;20018;-80
2024/01/01 02:57:19;;;;;;;21.27;3.78;;;10.70;99.90;;;;;;7383581;19;20039;-81
2024/01/01 02:59:50;;;;;;;15.13;2.70;;;10.70;99.90;;;;;;7383439;19;20004;-81
2024/01/01 03:02:23;;;;;;;17.83;3.17;;;10.70;99.90;;;;;;7404977;19;20039;-80
2024/01/01 03:04:53;;;;;;;21.75;3.45;;;10.70;99.90;;;;;;7385941;19;20046;-81
2024/01/01 03:07:28;;;;;;;22.80;2.85;;;10.70;99.90;;;;;;7389146;19;20017;-81
2024/01/01 03:09:57;;;;;;;20.73;3.78;;;10.60;99.90;;;;;;7385228;19;20011;-80
2024/01/01 03:12:31;;;;;;;33.40;3.53;;;10.60;99.90;;;;;;7384000;19;20003;-81
2024/01/01 03:15:00;;;;;;;20.90;3.25;;;10.50;99.90;;;;;;7386019;19;20010;-81
2024/01/01 03:17:29;;;;;;;18.10;2.80;;;10.60;99.90;;;;;;7407303;19;20262;-80
2024/01/01 03:20:34;;;;;;;17.50;3.38;;;10.30;99.90;;;;;;7387111;19;20007;-79
2024/01/01 03:23:20;;;;;;;29.77;3.47;;;10.40;99.90;;;;;;7384451;19;20010;-81
2024/01/01 03:26:19;;;;;;;18.77;2.92;;;10.30;99.90;;;;;;7383663;19;20003;-80
2024/01/01 03:28:53;;;;;;;17.20;2.83;;;10.30;99.90;;;;;;7382678;19;20014;-82
2024/01/01 03:31:22;;;;;;;20.02;2.97;;;10.30;99.90;;;;;;7382563;19;20003;-81
2024/01/01 03:33:51;;;;;;;14.52;3.30;;;10.40;99.90;;;;;;7382302;19;20099;-80
2024/01/01 03:37:11;;;;;;;18.17;3.15;;;10.40;99.90;;;;;;7361920;19;20027;-81
2024/01/01 03:43:00;;;;;;;13.25;2.83;;;10.50;99.90;;;;;;7381047;19;20030;-81
2024/01/01 03:45:33;;;;;;;12.38;2.35;;;10.30;99.90;;;;;;7382773;19;20075;-81
2024/01/01 03:48:02;;;;;;;17.25;3.30;;;10.30;99.90;;;;;;7380875;19;20007;-81
2024/01/01 03:50:31;;;;;;;12.45;2.50;;;10.10;99.90;;;;;;7393787;19;20459;-81
2024/01/01 03:53:00;;;;;;;9.18;2.42;;;10.30;99.90;;;;;;7406412;19;20353;-81
2024/01/01 03:55:29;;;;;;;15.85;2.38;;;10.30;99.90;;;;;;7382628;19;20006;-82
2024/01/01 03:57:59;;;;;;;17.40;2.55;;;10.30;99.90;;;;;;7385512;19;20011;-81
2024/01/01 04:00:30;;;;;;;15.02;3.20;;;10.40;99.90;;;;;;7387198;19;20002;-81
2024/01/01 04:02:59;;;;;;;;;;;10.40;99.90;;;;;;7386260;19;20010;-81
2024/01/01 04:05:28;;;;;;;17.52;3.08;;;10.40;99.90;;;;;;7405528;19;19911;-80
2024/01/01 04:07:57;;;;;;;9.32;2.38;;;10.50;99.90;;;;;;7399075;19;20010;-81
2024/01/01 04:10:25;;;;;;;12.15;2.65;;;10.40;99.90;;;;;;7406329;19;20033;-80
2024/01/01 04:12:54;;;;;;;15.13;2.42;;;10.30;99.90;;;;;;7405632;19;20007;-81
2024/01/01 04:15:25;;;;;;;13.02;2.28;;;10.40;99.90;;;;;;7403507;19;19998;-80
2024/01/01 04:17:58;;;;;;;20.75;2.80;;;10.30;99.90;;;;;;7396025;19;20010;-80
2024/01/01 04:20:27;;;;;;;6.65;2.13;;;10.40;99.90;;;;;;7405246;19;20015;-80
2024/01/01 04:22:55;;;;;;;12.70;2.35;;;10.40;99.90;;;;;;7380942;19;20368;-80
2024/01/01 04:25:25;;;;;;;17.23;2.42;;;10.20;99.90;;;;;;7381032;19;20081;-79
2024/01/01 04:27:54;;;;;;;18.27;2.50;;;10.00;99.90;;;;;;7382264;19;20130;-80
2024/01/01 04:30:23;;;;;;;17.08;2.15;;;10.20;99.90;;;;;;7382488;19;20010;-80
2024/01/01 04:32:52;;;;;;;11.23;2.50;;;10.10;99.90;;;;;;7380755;19;19996;-80
2024/01/01 04:35:23;;;;;;;17.08;2.50;;;10.20;99.90;;;;;;7402835;19;20030;-80
2024/01/01 04:37:52;;;;;;;;;;;10.30;99.90;;;;;;7381690;19;20017;-81
2024/01/01 04:40:21;;;;;;;23.40;2.80;;;10.20;99.90;;;;;;7379880;19;20218;-81
2024/01/01 04:42:50;;;;;;;16.48;2.83;;;10.20;99.90;;;;;;7380065;19;20248;-80
2024/01/01 04:45:19;;;;;;;17.90;2.55;;;10.10;99.90;;;;;;7379990;19;20099;-80
2024/01/01 04:47:48;;;;;;;19.17;3.17;;;10.10;99.90;;;;;;7379368;19;20115;-81
2024/01/01 04:50:17;;;;;;;20.88;2.70;;;10.20;99.90;;;;;;7405180;19;20007;-80
2024/01/01 04:56:25;;;;;;;15.32;2.80;;;10.20;99.90;;;;;;7381432;19;20078;-81
2024/01/01 04:59:07;;;;;;;13.85;2.45;;;10.30;99.90;;;;;;7380106;19;20018;-81
2024/01/01 05:05:08;;;;;;;19.33;2.17;;;10.20;99.90;;;;;;7379431;19;20002;-80
2024/01/01 05:07:53;;;;;;;;;;;;;;;;;;;;;
2024/01/01 05:13:42;;;;;;;13.00;2.17;;;10.10;99.90;;;;;;7378485;19;20017;-80
2024/01/01 05:16:43;;;;;;;;;;;;;;;;;;;;;
2024/01/01 05:19:16;;;;;;;12.98;2.60;;;10.10;99.90;;;;;;7379084;19;20024;-80
2024/01/01 05:22:20;;;;;;;22.80;2.50;;;10.10;99.90;;;;;;7377465;19;20726;-80
2024/01/01 05:25:01;;;;;;;;;;;;;;;;;;;;;
2024/01/01 05:27:55;;;;;;;17.25;1.83;;;10.10;99.90;;;;;;7378139;19;20011;-81
2024/01/01 05:30:41;;;;;;;7.70;2.35;;;10.10;99.90;;;;;;7385351;19;20017;-81
2024/01/01 05:33:23;;;;;;;14.13;2.63;;;10.10;99.90;;;;;;7383095;19;20007;-81
2024/01/01 05:36:04;;;;;;;;;;;;;;;;;;;;;
2024/01/01 05:39:04;;;;;;;;;;;10.00;99.90;;;;;;7385684;19;20016;-79
2024/01/01 05:44:44;;;;;;;20.98;2.30;;;9.90;99.90;;;;;;7284358;19;2004436;-81
2024/01/01 05:47:20;;;;;;;19.25;2.65;;;9.70;99.90;;;;;;7411035;19;20002;-80
2024/01/01 05:50:30;;;;;;;16.23;2.40;;;9.80;99.90;;;;;;7387797;19;20050;-81
2024/01/01 05:53:21;;;;;;;16.88;2.15;;;9.80;99.90;;;;;;7385481;19;20027;-81
2024/01/01 05:55:57;;;;;;;15.05;2.00;;;9.90;99.90;;;;;;7384353;19;20014;-80
2024/01/01 05:58:58;;;;;;;8.18;2.00;;;9.90;99.90;;;;;;7384044;19;20046;-81
2024/01/01 06:01:29;;;;;;;10.77;2.70;;;9.80;99.90;;;;;;7384917;19;20070;-81
2024/01/01 06:03:58;;;;;;;;;;;9.60;99.90;;;;;;7384211;19;20251;-81
2024/01/01 06:06:29;;;;;;;15.63;2.65;;;9.80;99.90;;;;;;7383505;19;20227;-80
2024/01/01 06:25:24;;;;;;;10.20;2.60;;;9.60;99.90;;;;;;7416888;19;20348;-80
2024/01/01 06:27:53;;;;;;;11.07;2.50;;;9.60;99.90;;;;;;7415129;19;20017;-80
2024/01/01 06:30:22;;;;;;;23.40;2.78;;;9.50;99.90;;;;;;7414572;19;20070;-79
2024/01/01 06:32:51;;;;;;;12.75;1.80;;;9.70;99.90;;;;;;7413990;19;20026;-79
2024/01/01 06:35:19;;;;;;;17.95;3.00;;;9.70;99.90;;;;;;7437302;19;20065;-80
2024/01/01 06:37:48;;;;;;;10.20;2.30;;;9.80;99.90;;;;;;7416310;19;20624;-79
2024/01/01 06:40:19;;;;;;;26.17;3.08;;;9.70;99.90;;;;;;7418276;19;20002;-81
2024/01/01 06:42:54;;;;;;;11.82;1.88;;;9.70;99.90;;;;;;7418924;19;20239;-80
2024/01/01 06:48:50;;;;;;;21.52;2.75;;;9.80;99.90;;;;;;7412420;19;20039;-81
2024/01/01 06:51:19;;;;;;;13.10;2.20;;;9.60;99.90;;;;;;7413062;19;20022;-79
2024/01/01 06:53:52;;;;;;;15.45;2.70;;;9.60;99.90;;;;;;7415589;19;20006;-81
2024/01/01 06:56:22;;;;;;;12.98;2.63;;;9.80;99.90;;;;;;7438608;19;20346;-80
2024/01/01 06:58:54;;;;;;;18.00;2.42;;;9.80;99.90;;;;;;7417272;19;19999;-80
2024/01/01 07:01:28;;;;;;;26.75;3.25;;;9.80;99.90;;;;;;7416271;19;20011;-80
2024/01/01 07:04:00;;;;;;;27.50;2.83;;;9.60;99.90;;;;;;7415960;19;20261;-82
2024/01/01 07:06:30;;;;;;;19.98;2.85;;;9.70;99.90;;;;;;7413573;19;20006;-80
2024/01/01 07:09:01;;;;;;;19.73;2.40;;;9.70;99.90;;;;;;7414342;19;20019;-79
2024/01/01 07:11:32;;;;;;;16.20;2.25;;;9.60;99.90;;;;;;7438832;19;20038;-80
2024/01/01 07:14:03;;;;;;;26.70;2.83;;;9.50;99.90;;;;;;7413172;19;20219;-80
2024/01/01 07:16:32;;;;;;;;;;;9.70;99.90;;;;;;7416514;19;20256;-80
2024/01/01 07:19:02;;;;;;;12.00;2.58;;;9.80;99.90;;;;;;7413844;19;19966;-80
2024/01/01 07:21:31;;;;;;;23.85;2.88;;;9.60;99.90;;;;;;7413593;19;20165;-81
2024/01/01 07:24:00;;;;;;;26.75;3.13;;;9.80;99.90;;;;;;7413718;19;20030;-79
2024/01/01 07:26:29;;;;;;;17.98;2.90;;;9.70;99.90;;;;;;7404243;19;20014;-79
2024/01/01 07:29:00;;;;;;;20.92;3.60;;;9.70;99.90;;;;;;7385185;19;20010;-80
2024/01/01 07:31:32;;;;;;;20.10;2.45;;;9.70;99.90;;;;;;7384744;19;20030;-80
2024/01/01 07:34:03;;;;;;;;;;;9.70;99.90;;;;;;7385218;19;20118;-80
2024/01/01 07:36:34;;;;;;;11.40;2.08;;;9.80;99.90;;;;;;7385210;19;19939;-80
2024/01/01 07:39:08;;;;;;;15.02;1.88;;;9.90;99.90;;;;;;7387751;19;20107;-80
2024/01/01 07:41:38;;;;;;;12.07;2.25;;;9.90;99.90;;;;;;7405318;19;20036;-81
2024/01/01 07:44:09;;;;;;;7.18;2.70;;;9.90;99.90;;;;;;7385006;19;20017;-81
2024/01/01 07:46:44;;;;;;;21.30;3.30;;;9.80;99.90;;;;;;7384581;19;20236;-81
2024/01/01 07:49:15;;;;;;;24.63;3.33;;;9.70;99.90;;;;;;7386613;19;20357;-80
2024/01/01 07:51:44;;;;;;;15.52;2.55;;;9.70;99.90;;;;;;7385474;19;20401;-82
2024/01/01 07:54:26;;;;;;;17.45;2.88;;;9.60;99.90;;;;;;7385777;19;20002;-82
2024/01/01 07:56:55;;;;;;;25.58;3.13;;;9.70;99.90;;;;;;7383567;19;20381;-81
2024/01/01 07:59:24;;;;;;;33.42;4.07;;;9.80;99.90;;;;;;7404030;19;20007;-80
2024/01/01 08:01:55;;;;;;;14.07;2.10;;;9.70;99.90;;;;;;7384188;19;20030;-81
2024/01/01 08:04:24;;;;;;;40.88;3.67;;;9.70;99.90;;;;;;7384765;19;20023;-80
2024/01/01 08:06:52;;;;;;;185.43;10.35;;;9.60;99.90;;;;;;7383837;19;20020;-83
2024/01/01 08:09:21;;;;;;;18.98;3.03;;;9.80;99.90;;;;;;7383903;19;20010;-80
2024/01/01 08:11:50;;;;;;;19.63;2.97;;;9.70;99.90;;;;;;7383622;19;20017;-80
2024/01/01 08:14:19;;;;;;;25.15;3.42;;;9.80;99.90;;;;;;7405537;19;20003;-80
2024/01/01 08:16:48;;;;;;;20.80;3.08;;;9.80;99.90;;;;;;7392788;19;20002;-81
2024/01/01 08:19:19;;;;;;;20.25;3.28;;;9.90;99.90;;;;;;7405663;19;20014;-79
2024/01/01 08:21:50;;;;;;;;;;;9.70;99.90;;;;;;7407074;19;19999;-80
2024/01/01 08:24:19;;;;;;;13.70;2.47;;;9.90;99.90;;;;;;7403147;19;19931;-79
2024/01/01 08:26:48;;;;;;;11.30;1.98;;;9.80;99.90;;;;;;7392883;19;20030;-80
2024/01/01 08:29:22;;;;;;;21.95;2.75;;;9.70;99.90;;;;;;7413345;19;20035;-80
2024/01/01 08:31:51;;;;;;;14.90;2.67;;;9.60;99.90;;;;;;7390155;19;20018;-81
2024/01/01 08:34:22;;;;;;;25.02;2.80;;;9.70;99.90;;;;;;7387430;19;20011;-81
2024/01/01 08:36:51;;;;;;;10.13;2.38;;;9.60;99.90;;;;;;7382144;19;20011;-79
2024/01/01 09:05:57;;;;;;;20.15;3.20;;;9.80;99.90;;;;;;7416006;19;20323;-81
2024/01/01 09:08:26;;;;;;;26.50;3.38;;;10.10;99.90;;;;;;7435628;19;20009;-81
2024/01/01 09:10:55;;;;;;;20.70;2.92;;;10.10;99.90;;;;;;7415626;19;20006;-80
2024/01/01 09:13:24;;;;;;;13.65;2.95;;;10.20;99.90;;;;;;7415698;19;20010;-81
2024/01/01 09:15:53;;;;;;;16.48;2.83;;;10.30;99.90;;;;;;7417564;19;20092;-81
2024/01/01 09:18:50;;;;;;;30.98;4.03;;;10.30;99.90;;;;;;7420658;19;19998;-81
2024/01/01 09:25:30;;;;;;;;;;;;;;;;;;;;;
2024/01/01 09:28:26;;;;;;;17.38;2.63;;;10.50;99.90;;;;;;7436353;19;20010;-82
2024/01/01 09:47:31;;;;;;;16.48;2.70;;;10.20;99.90;;;;;;7413779;19;20383;-80
2024/01/01 09:50:03;;;;;;;13.80;2.60;;;10.50;99.90;;;;;;7415574;19;20066;-81
2024/01/01 09:52:46;;;;;;;16.08;2.38;;;10.50;99.90;;;;;;7415421;19;20006;-81
2024/01/01 09:55:17;;;;;;;27.27;3.33;;;10.60;99.90;;;;;;7413200;19;20002;-81
2024/01/01 09:57:46;;;;;;;23.58;3.50;;;10.80;99.90;;;;;;7415746;19;20010;-81
2024/01/01 10:00:25;;;;;;;9.27;2.25;;;10.80;99.90;;;;;;7417175;19;20010;-81
2024/01/01 10:03:10;;;;;;;18.85;3.30;;;10.60;99.90;;;;;;7414485;19;20010;-78
2024/01/01 10:05:48;;;;;;;24.38;3.13;;;10.80;99.90;;;;;;7436452;19;20009;-79
2024/01/01 10:08:18;;;;;;;16.63;3.03;;;10.90;99.90;;;;;;7417438;19;20007;-79
2024/01/01 10:10:47;;;;;;;14.02;2.75;;;11.00;99.90;;;;;;7414028;19;20007;-80
2024/01/01 10:13:17;;;;;;;16.73;3.15;;;11.00;99.90;;;;;;7415300;19;20007;-79
2024/01/01 10:16:28;;;;;;;28.05;3.05;;;11.10;99.90;;;;;;7414137;19;20002;-80
2024/01/01 10:19:41;;;;;;;;;;;;;;;;;;;;;
2024/01/01 10:22:42;;;;;;;;;;;;;;;;;;;;;
2024/01/01 10:25:39;;;;;;;20.80;2.57;;;10.80;99.90;;;;;;7415871;19;20206;-80
2024/01/01 10:28:16;;;;;;;25.25;2.50;;;11.00;99.90;;;;;;7431789;19;20011;-79
2024/01/01 10:33:41;;;;;;;23.83;3.20;;;11.10;99.90;;;;;;7449236;19;20530;-77
2024/01/01 10:36:14;;;;;;;17.63;2.30;;;11.20;99.90;;;;;;7414460;19;20031;-76
2024/01/01 10:38:48;;;;;;;21.25;2.88;;;11.30;99.90;;;;;;7432387;19;20128;-78
2024/01/01 10:41:22;;;;;;;19.70;3.00;;;11.40;99.90;;;;;;7409034;19;20003;-79
2024/01/01 10:43:53;;;;;;;16.33;3.40;;;11.40;99.90;;;;;;7410567;19;20010;-76
2024/01/01 10:46:32;;;;;;;15.90;2.80;;;11.50;99.90;;;;;;7407014;19;20743;-79
2024/01/01 10:49:15;;;;;;;23.02;3.05;;;11.40;99.90;;;;;;7390900;19;20029;-80
2024/01/01 10:52:01;;;;;;;20.30;2.70;;;11.30;99.90;;;;;;7383279;19;20007;-77
2024/01/01 10:55:05;;;;;;;13.32;2.63;;;11.50;99.90;;;;;;7378329;19;20011;-77
2024/01/01 10:58:00;;;;;;;17.90;2.85;;;11.60;99.90;;;;;;7386852;19;20040;-79
2024/01/01 11:00:41;;;;;;;11.70;2.47;;;11.70;99.90;;;;;;7386982;19;20077;-80
2024/01/01 11:03:15;;;;;;;15.73;3.20;;;11.50;99.90;;;;;;7386868;19;20259;-79
2024/01/01 11:05:45;;;;;;;14.90;2.55;;;11.60;99.90;;;;;;7409624;19;20019;-77
2024/01/01 11:08:28;;;;;;;25.00;3.33;;;11.60;99.90;;;;;;7384952;19;20011;-79
2024/01/01 11:10:58;;;;;;;23.05;3.00;;;11.40;99.90;;;;;;7383628;19;20050;-78
2024/01/01 11:13:54;;;;;;;23.08;3.13;;;11.50;99.90;;;;;;7384139;19;20019;-79
2024/01/01 11:16:26;;;;;;;18.83;2.72;;;11.60;99.90;;;;;;7384547;19;20045;-80
2024/01/01 11:18:54;;;;;;;;;;;11.60;99.90;;;;;;7380473;19;20014;-77
2024/01/01 11:21:33;;;;;;;19.65;2.70;;;11.70;99.90;;;;;;7378933;19;20222;-76
2024/01/01 11:24:05;;;;;;;21.15;2.97;;;11.80;99.90;;;;;;7385476;19;20021;-78
2024/01/01 11:26:41;;;;;;;14.10;2.80;;;11.60;99.90;;;;;;7403476;19;20290;-79
2024/01/01 11:29:28;;;;;;;11.65;2.83;;;11.60;99.90;;;;;;7383262;19;20250;-79
2024/01/01 11:32:08;;;;;;;26.63;3.15;;;11.70;99.90;;;;;;7382734;19;20078;-77
2024/01/01 11:34:37;;;;;;;23.88;3.08;;;11.80;99.90;;;;;;7382694;19;20291;-79
2024/01/01 11:37:06;;;;;;;15.77;3.65;;;11.80;99.90;;;;;;7380794;19;20014;-77
2024/01/01 11:39:37;;;;;;;17.38;3.33;;;11.90;99.90;;;;;;7381667;19;20010;-79
2024/01/01 11:42:06;;;;;;;17.33;2.97;;;11.90;99.90;;;;;;7383299;19;20027;-77
2024/01/01 11:44:35;;;;;;;27.67;3.25;;;12.00;99.90;;;;;;7404348;19;20019;-79
2024/01/01 11:47:03;;;;;;;21.65;3.17;;;12.10;99.90;;;;;;7381591;19;20039;-78
2024/01/01 11:49:35;;;;;;;25.38;2.88;;;12.10;99.90;;;;;;7383130;19;20050;-78
2024/01/01 11:52:05;;;;;;;28.90;3.38;;;12.00;99.90;;;;;;7383207;19;20542;-78
2024/01/01 11:54:37;;;;;;;18.85;2.70;;;12.00;99.90;;;;;;7381987;19;20383;-78
2024/01/01 11:57:06;;;;;;;13.43;3.10;;;12.00;99.90;;;;;;7379904;19;20014;-78
2024/01/01 11:59:37;;;;;;;15.65;2.42;;;12.10;99.90;;;;;;7398097;19;20013;-79
2024/01/01 12:02:08;;;;;;;21.20;3.40;;;12.20;99.90;;;;;;7382726;19;20006;-79
2024/01/01 12:04:39;;;;;;;20.23;2.67;;;12.30;99.90;;;;;;7382481;19;20038;-79
2024/01/01 12:07:08;;;;;;;16.27;2.83;;;12.30;99.90;;;;;;7383883;19;20007;-79
2024/01/01 12:09:39;;;;;;;13.75;2.13;;;12.10;99.90;;;;;;7379472;19;20024;-77
2024/01/01 12:12:12;;;;;;;16.42;3.00;;;12.00;99.90;;;;;;7379506;19;20354;-77
2024/01/01 12:14:41;;;;;;;12.88;2.38;;;12.10;99.90;;;;;;7400505;19;20014;-78
2024/01/01 12:17:10;;;;;;;15.63;2.22;;;12.10;99.90;;;;;;7378533;19;20009;-78
2024/01/01 12:19:38;;;;;;;20.80;3.05;;;12.00;99.90;;;;;;7383160;19;20011;-78
2024/01/01 12:22:07;;;;;;;21.60;2.63;;;12.10;99.90;;;;;;7380531;19;20007;-78
2024/01/01 12:24:38;;;;;;;13.82;2.88;;;12.00;99.90;;;;;;7380481;19;20007;-78
2024/01/01 12:27:09;;;;;;;26.02;3.15;;;12.10;99.90;;;;;;7380474;19;20027;-80
2024/01/01 12:29:37;;;;;;;20.85;2.58;;;12.20;99.90;;;;;;7403350;19;20021;-79
2024/01/01 12:32:07;;;;;;;19.75;2.95;;;12.20;99.90;;;;;;7383005;19;20010;-79
2024/01/01 12:34:36;;;;;;;18.05;2.97;;;12.10;99.90;;;;;;7382766;19;20231;-80
2024/01/01 12:37:06;;;;;;;25.15;2.90;;;12.10;99.90;;;;;;7387537;19;20031;-80
2024/01/01 12:39:34;;;;;;;17.50;3.60;;;12.10;99.90;;;;;;7404195;19;20015;-78
2024/01/01 12:42:09;;;;;;;20.63;3.65;;;12.20;99.90;;;;;;7403501;19;20010;-79
2024/01/01 12:44:38;;;;;;;11.38;2.50;;;12.40;99.90;;;;;;7424304;19;20017;-78
2024/01/01 12:47:07;;;;;;;18.05;2.38;;;12.40;99.90;;;;;;7403756;19;20010;-79
2024/01/01 12:49:36;;;;;;;22.30;2.78;;;12.50;99.90;;;;;;7393512;19;20007;-80
2024/01/01 12:52:08;;;;;;;19.33;2.58;;;12.10;99.90;;;;;;7382882;19;20122;-80
2024/01/01 12:54:37;;;;;;;11.93;2.50;;;12.20;99.90;;;;;;7381146;19;20003;-79
2024/01/01 12:57:08;;;;;;;21.45;2.85;;;12.40;99.90;;;;;;7377972;19;20015;-79
2024/01/01 12:59:38;;;;;;;18.73;2.70;;;12.50;99.90;;;;;;7399021;19;20014;-77
2024/01/01 13:02:07;;;;;;;23.13;2.45;;;12.50;99.90;;;;;;7378287;19;20002;-77
2024/01/01 13:04:35;;;;;;;19.15;2.80;;;12.20;99.90;;;;;;7378039;19;20260;-77
2024/01/01 13:07:04;;;;;;;12.77;2.55;;;12.40;99.90;;;;;;7379278;19;20058;-78
2024/01/01 13:09:33;;;;;;;13.05;2.60;;;12.30;99.90;;;;;;7382410;19;20358;-78
2024/01/01 13:12:04;;;;;;;29.55;3.28;;;12.20;99.90;;;;;;7389017;19;20442;-78
2024/01/01 13:14:35;;;;;;;16.58;2.25;;;12.40;99.90;;;;;;7398177;19;20034;-77
2024/01/01 13:17:04;;;;;;;;;;;12.50;99.90;;;;;;7376782;19;20053;-77
2024/01/01 13:19:33;;;;;;;18.08;2.38;;;12.60;99.90;;;;;;7377271;19;19928;-76
2024/01/01 13:22:01;;;;;;;18.30;2.80;;;12.70;99.90;;;;;;7377904;19;20177;-76
2024/01/01 13:24:30;;;;;;;27.67;3.00;;;12.80;99.90;;;;;;7377566;19;19999;-77
2024/01/01 13:26:59;;;;;;;16.58;2.53;;;12.80;99.90;;;;;;7398747;19;20007;-77
2024/01/01 13:29:29;;;;;;;13.77;2.10;;;12.80;99.90;;;;;;7377375;19;20106;-78
2024/01/01 13:32:00;;;;;;;15.23;2.80;;;12.70;99.90;;;;;;7376100;19;20085;-77
2024/01/01 13:34:29;;;;;;;16.23;2.42;;;12.70;99.90;;;;;;7377257;19;20010;-78
2024/01/01 13:36:57;;;;;;;10.55;2.10;;;12.50;99.90;;;;;;7376491;19;20072;-77
2024/01/01 13:39:26;;;;;;;20.90;2.35;;;12.60;99.90;;;;;;7376133;19;20458;-76
2024/01/01 13:41:55;;;;;;;20.42;2.67;;;12.70;99.90;;;;;;7397420;19;20381;-76
2024/01/01 13:44:24;;;;;;;16.63;2.42;;;12.80;99.90;;;;;;7375487;19;20031;-78
2024/01/01 13:46:53;;;;;;;16.73;2.17;;;12.90;99.90;;;;;;7375697;19;20014;-77
2024/01/01 13:49:25;;;;;;;15.15;2.38;;;12.80;99.90;;;;;;7376556;19;20015;-77
2024/01/01 13:51:56;;;;;;;14.68;2.55;;;12.80;99.90;;;;;;7376487;19;20009;-77
2024/01/01 13:54:25;;;;;;;15.15;2.58;;;12.80;99.90;;;;;;7377693;19;20044;-76
2024/01/01 13:56:54;;;;;;;18.67;2.40;;;12.70;99.90;;;;;;7398119;19;20027;-76
2024/01/01 13:59:23;;;;;;;12.93;2.35;;;12.60;99.90;;;;;;7376225;19;20010;-76
2024/01/01 14:01:52;;;;;;;8.18;2.08;;;12.50;99.90;;;;;;7376451;19;20063;-77
2024/01/01 14:04:23;;;;;;;11.10;1.90;;;12.50;99.90;;;;;;7377168;19;20013;-77
2024/01/01 14:06:52;;;;;;;17.55;2.33;;;12.60;99.90;;;;;;7378995;19;20002;-77
2024/01/01 14:09:21;;;;;;;13.02;2.30;;;12.70;99.90;;;;;;7376759;19;20003;-78
2024/01/01 14:11:51;;;;;;;13.88;2.30;;;12.80;99.90;;;;;;7402564;19;20020;-77
2024/01/01 14:14:20;;;;;;;17.33;2.35;;;12.80;99.90;;;;;;7376275;19;20239;-77
2024/01/01 14:16:49;;;;;;;20.92;2.60;;;12.60;99.90;;;;;;7376547;19;20003;-78
2024/01/01 14:19:18;;;;;;;15.88;2.80;;;12.70;99.90;;;;;;7378172;19;20018;-78
2024/01/01 14:21:49;;;;;;;12.25;2.03;;;12.70;99.90;;;;;;7380981;19;20015;-78
2024/01/01 14:24:18;;;;;;;;;;;12.80;99.90;;;;;;7385889;19;20665;-75
2024/01/01 14:26:48;;;;;;;16.75;2.15;;;12.50;99.90;;;;;;7405075;19;19931;-77
2024/01/01 14:29:17;;;;;;;16.92;2.88;;;12.60;99.90;;;;;;7382096;19;20070;-77
2024/01/01 14:31:46;;;;;;;12.77;2.35;;;12.50;99.90;;;;;;7383281;19;20002;-79
2024/01/01 14:34:15;;;;;;;8.32;2.03;;;12.60;99.90;;;;;;7382726;19;20027;-75
2024/01/01 14:36:44;;;;;;;14.48;2.45;;;12.40;99.90;;;;;;7381750;19;20070;-76
2024/01/01 14:39:16;;;;;;;16.85;2.75;;;11.90;99.90;;;;;;7382104;19;20157;-75
2024/01/01 14:41:46;;;;;;;12.55;2.30;;;12.10;99.90;;;;;;7402892;19;20027;-76
2024/01/01 14:44:15;;;;;;;12.95;1.88;;;12.30;99.90;;;;;;7381624;19;20014;-76
2024/01/01 14:46:46;;;;;;;13.23;2.22;;;12.20;99.90;;;;;;7383116;19;20010;-77
2024/01/01 14:49:14;;;;;;;18.00;2.70;;;12.30;99.90;;;;;;7391982;19;20018;-76
2024/01/01 14:51:46;;;;;;;13.05;2.28;;;12.50;99.90;;;;;;7393971;19;20082;-76
2024/01/01 14:54:18;;;;;;;12.02;2.40;;;12.50;99.90;;;;;;7394214;19;20015;-77
2024/01/01 14:56:48;;;;;;;14.20;2.25;;;12.60;99.90;;;;;;7414470;19;20015;-77
2024/01/01 14:59:18;;;;;;;8.98;2.13;;;12.70;99.90;;;;;;7384886;19;20058;-79
2024/01/01 15:01:47;;;;;;;9.93;2.20;;;12.60;99.90;;;;;;7384892;19;20003;-77
2024/01/01 15:04:17;;;;;;;10.68;2.00;;;12.40;99.90;;;;;;7386735;19;20014;-77
2024/01/01 15:06:47;;;;;;;11.07;2.60;;;12.40;99.90;;;;;;7386747;19;20079;-80
2024/01/01 15:09:30;;;;;;;;;;;;;;;;;;;;;
2024/01/01 15:12:00;;;;;;;14.05;2.00;;;12.30;99.90;;;;;;7404290;19;20007;-76
2024/01/01 15:14:30;;;;;;;19.20;2.25;;;12.10;99.90;;;;;;7383308;19;20002;-77
2024/01/01 15:17:01;;;;;;;14.70;2.72;;;12.40;99.90;;;;;;7382594;19;20374;-77
2024/01/01 15:19:30;;;;;;;10.27;2.58;;;12.40;99.90;;;;;;7383672;19;20010;-76
2024/01/01 15:21:58;;;;;;;12.23;3.33;;;12.50;99.90;;;;;;7383070;19;20028;-77
2024/01/01 15:24:30;;;;;;;16.67;2.60;;;12.60;99.90;;;;;;7379295;19;20058;-76
2024/01/01 15:27:00;;;;;;;12.55;3.00;;;12.40;99.90;;;;;;7403988;19;20018;-77
2024/01/01 15:29:28;;;;;;;13.90;2.83;;;12.50;99.90;;;;;;7381665;19;20007;-76
2024/01/01 15:31:57;;;;;;;21.67;3.15;;;12.50;99.90;;;;;;7382188;19;20019;-76
2024/01/01 15:34:29;;;;;;;17.73;3.08;;;12.40;99.90;;;;;;7381450;19;20024;-76
2024/01/01 15:36:58;;;;;;;10.73;2.45;;;12.40;99.90;;;;;;7381935;19;20362;-78
2024/01/01 15:39:29;;;;;;;17.23;2.50;;;12.50;99.90;;;;;;7381168;19;20003;-76
2024/01/01 15:41:58;;;;;;;16.63;2.72;;;12.50;99.90;;;;;;7403957;19;20027;-75